sensor_id;sensor_type;location;lat;lon;timestamp;temperature;humidity
14099;DHT22;7126;48.458;7.930;2023-02-01T00:00:54;6.10;99.90
14099;DHT22;7126;48.458;7.930;2023-02-01T00:03:19;6.10;99.90
14099;DHT22;7126;48.458;7.930;2023-02-01T00:05:55;6.20;99.90
14099;DHT22;7126;48.458;7.930;2023-02-01T00:08:20;6.10;99.90
14099;DHT22;7126;48.458;7.930;2023-02-01T00:10:46;6.10;99.90
14099;DHT22;7126;48.458;7.930;2023-02-01T00:13:11;6.10;99.90
14099;DHT22;7126;48.458;7.930;2023-02-01T00:15:37;6.00;99.90
14099;DHT22;7126;48.458;7.930;2023-02-01T00:18:02;6.10;99.90
14099;DHT22;7126;48.458;7.930;2023-02-01T00:20:28;6.10;99.90
14099;DHT22;7126;48.458;7.930;2023-02-01T00:22:54;6.10;99.90
14099;DHT22;7126;48.458;7.930;2023-02-01T00:25:19;6.10;99.90
14099;DHT22;7126;48.458;7.930;2023-02-01T00:27:48;6.10;99.90
14099;DHT22;7126;48.458;7.930;2023-02-01T00:30:15;6.10;99.90
14099;DHT22;7126;48.458;7.930;2023-02-01T00:32:40;6.10;99.90
14099;DHT22;7126;48.458;7.930;2023-02-01T00:35:06;6.00;99.90
14099;DHT22;7126;48.458;7.930;2023-02-01T00:37:33;6.00;99.90
14099;DHT22;7126;48.458;7.930;2023-02-01T00:39:59;6.00;99.90
14099;DHT22;7126;48.458;7.930;2023-02-01T00:42:24;6.00;99.90
14099;DHT22;7126;48.458;7.930;2023-02-01T00:44:50;6.00;99.90
14099;DHT22;7126;48.458;7.930;2023-02-01T00:47:15;6.00;99.90
14099;DHT22;7126;48.458;7.930;2023-02-01T00:49:41;6.10;99.90
14099;DHT22;7126;48.458;7.930;2023-02-01T00:52:06;6.00;99.90
14099;DHT22;7126;48.458;7.930;2023-02-01T00:54:32;6.00;99.90
14099;DHT22;7126;48.458;7.930;2023-02-01T00:56:58;6.00;99.90
14099;DHT22;7126;48.458;7.930;2023-02-01T00:59:24;6.10;99.90
14099;DHT22;7126;48.458;7.930;2023-02-01T01:01:49;6.10;99.90
14099;DHT22;7126;48.458;7.930;2023-02-01T01:04:15;6.10;99.90
14099;DHT22;7126;48.458;7.930;2023-02-01T01:06:40;6.10;99.90
14099;DHT22;7126;48.458;7.930;2023-02-01T01:09:08;6.00;99.90
14099;DHT22;7126;48.458;7.930;2023-02-01T01:11:36;6.00;99.90
14099;DHT22;7126;48.458;7.930;2023-02-01T01:14:03;6.00;99.90
14099;DHT22;7126;48.458;7.930;2023-02-01T01:16:30;6.00;99.90
14099;DHT22;7126;48.458;7.930;2023-02-01T01:18:56;6.00;99.90
14099;DHT22;7126;48.458;7.930;2023-02-01T01:21:23;6.00;99.90
14099;DHT22;7126;48.458;7.930;2023-02-01T01:23:48;6.10;99.90
14099;DHT22;7126;48.458;7.930;2023-02-01T01:26:17;6.10;99.90
14099;DHT22;7126;48.458;7.930;2023-02-01T01:28:43;6.10;99.90
14099;DHT22;7126;48.458;7.930;2023-02-01T01:31:13;6.10;99.90
14099;DHT22;7126;48.458;7.930;2023-02-01T01:33:39;6.10;99.90
14099;DHT22;7126;48.458;7.930;2023-02-01T01:36:07;6.10;99.90
14099;DHT22;7126;48.458;7.930;2023-02-01T01:38:32;6.20;99.90
14099;DHT22;7126;48.458;7.930;2023-02-01T01:40:58;6.10;99.90
14099;DHT22;7126;48.458;7.930;2023-02-01T01:43:24;6.10;99.90
14099;DHT22;7126;48.458;7.930;2023-02-01T01:45:50;6.10;99.90
14099;DHT22;7126;48.458;7.930;2023-02-01T01:48:25;6.10;99.90
14099;DHT22;7126;48.458;7.930;2023-02-01T01:50:58;6.10;99.90
14099;DHT22;7126;48.458;7.930;2023-02-01T01:53:31;6.00;99.90
14099;DHT22;7126;48.458;7.930;2023-02-01T01:55:57;6.10;99.90
14099;DHT22;7126;48.458;7.930;2023-02-01T01:58:25;6.10;99.90
14099;DHT22;7126;48.458;7.930;2023-02-01T02:00:52;6.10;99.90
14099;DHT22;7126;48.458;7.930;2023-02-01T02:03:25;6.20;99.90
14099;DHT22;7126;48.458;7.930;2023-02-01T02:05:54;6.10;99.90
14099;DHT22;7126;48.458;7.930;2023-02-01T02:08:23;6.20;99.90
14099;DHT22;7126;48.458;7.930;2023-02-01T02:10:50;6.10;99.90
14099;DHT22;7126;48.458;7.930;2023-02-01T02:13:32;6.10;99.90
14099;DHT22;7126;48.458;7.930;2023-02-01T02:22:07;6.10;99.90
14099;DHT22;7126;48.458;7.930;2023-02-01T02:35:16;6.00;99.90
14099;DHT22;7126;48.458;7.930;2023-02-01T02:38:22;6.10;99.90
14099;DHT22;7126;48.458;7.930;2023-02-01T02:43:45;6.10;99.90
14099;DHT22;7126;48.458;7.930;2023-02-01T02:46:40;6.10;99.90
14099;DHT22;7126;48.458;7.930;2023-02-01T02:49:51;6.00;99.90
14099;DHT22;7126;48.458;7.930;2023-02-01T02:52:44;6.00;99.90
14099;DHT22;7126;48.458;7.930;2023-02-01T02:55:31;6.00;99.90
14099;DHT22;7126;48.458;7.930;2023-02-01T02:58:01;6.00;99.90
14099;DHT22;7126;48.458;7.930;2023-02-01T03:00:47;6.00;99.90
14099;DHT22;7126;48.458;7.930;2023-02-01T03:03:36;5.90;99.90
14099;DHT22;7126;48.458;7.930;2023-02-01T03:06:23;6.00;99.90
14099;DHT22;7126;48.458;7.930;2023-02-01T03:08:49;6.00;99.90
14099;DHT22;7126;48.458;7.930;2023-02-01T03:11:22;5.90;99.90
14099;DHT22;7126;48.458;7.930;2023-02-01T03:13:52;5.80;99.90
14099;DHT22;7126;48.458;7.930;2023-02-01T03:16:26;5.70;99.90
14099;DHT22;7126;48.458;7.930;2023-02-01T03:19:16;5.70;99.90
14099;DHT22;7126;48.458;7.930;2023-02-01T03:22:17;5.60;99.90
14099;DHT22;7126;48.458;7.930;2023-02-01T03:24:57;5.60;99.90
14099;DHT22;7126;48.458;7.930;2023-02-01T03:27:29;5.60;99.90
14099;DHT22;7126;48.458;7.930;2023-02-01T03:30:16;5.70;99.90
14099;DHT22;7126;48.458;7.930;2023-02-01T03:32:46;5.70;99.90
14099;DHT22;7126;48.458;7.930;2023-02-01T03:35:48;5.60;99.90
14099;DHT22;7126;48.458;7.930;2023-02-01T03:38:35;5.70;99.90
14099;DHT22;7126;48.458;7.930;2023-02-01T03:41:33;5.70;99.90
14099;DHT22;7126;48.458;7.930;2023-02-01T03:44:16;5.70;99.90
14099;DHT22;7126;48.458;7.930;2023-02-01T03:46:54;5.70;99.90
14099;DHT22;7126;48.458;7.930;2023-02-01T03:49:28;5.70;99.90
14099;DHT22;7126;48.458;7.930;2023-02-01T03:51:56;5.70;99.90
14099;DHT22;7126;48.458;7.930;2023-02-01T03:54:24;5.80;99.90
14099;DHT22;7126;48.458;7.930;2023-02-01T03:56:52;5.80;99.90
14099;DHT22;7126;48.458;7.930;2023-02-01T03:59:19;5.70;99.90
14099;DHT22;7126;48.458;7.930;2023-02-01T04:01:44;5.70;99.90
14099;DHT22;7126;48.458;7.930;2023-02-01T04:04:10;5.70;99.90
14099;DHT22;7126;48.458;7.930;2023-02-01T04:06:36;5.70;99.90
14099;DHT22;7126;48.458;7.930;2023-02-01T04:09:01;5.70;99.90
14099;DHT22;7126;48.458;7.930;2023-02-01T04:11:28;5.70;99.90
14099;DHT22;7126;48.458;7.930;2023-02-01T04:13:54;5.70;99.90
14099;DHT22;7126;48.458;7.930;2023-02-01T04:16:20;5.70;99.90
14099;DHT22;7126;48.458;7.930;2023-02-01T04:18:45;5.70;99.90
14099;DHT22;7126;48.458;7.930;2023-02-01T04:21:11;5.70;99.90
14099;DHT22;7126;48.458;7.930;2023-02-01T04:23:36;5.70;99.90
14099;DHT22;7126;48.458;7.930;2023-02-01T04:26:03;5.70;99.90
14099;DHT22;7126;48.458;7.930;2023-02-01T04:28:29;5.70;99.90
14099;DHT22;7126;48.458;7.930;2023-02-01T04:30:55;5.70;99.90
14099;DHT22;7126;48.458;7.930;2023-02-01T04:33:21;5.80;99.90
14099;DHT22;7126;48.458;7.930;2023-02-01T04:35:47;5.80;99.90
14099;DHT22;7126;48.458;7.930;2023-02-01T04:38:13;5.80;99.90
14099;DHT22;7126;48.458;7.930;2023-02-01T04:40:38;5.80;99.90
14099;DHT22;7126;48.458;7.930;2023-02-01T04:43:04;5.80;99.90
14099;DHT22;7126;48.458;7.930;2023-02-01T04:45:30;5.90;99.90
14099;DHT22;7126;48.458;7.930;2023-02-01T04:47:55;5.90;99.90
14099;DHT22;7126;48.458;7.930;2023-02-01T04:50:21;5.90;99.90
14099;DHT22;7126;48.458;7.930;2023-02-01T04:52:47;5.80;99.90
14099;DHT22;7126;48.458;7.930;2023-02-01T04:55:13;5.80;99.90
14099;DHT22;7126;48.458;7.930;2023-02-01T04:57:41;5.80;99.90
14099;DHT22;7126;48.458;7.930;2023-02-01T05:00:08;5.80;99.90
14099;DHT22;7126;48.458;7.930;2023-02-01T05:02:34;5.90;99.90
14099;DHT22;7126;48.458;7.930;2023-02-01T05:05:00;5.90;99.90
14099;DHT22;7126;48.458;7.930;2023-02-01T05:07:26;5.90;99.90
14099;DHT22;7126;48.458;7.930;2023-02-01T05:09:51;5.90;99.90
14099;DHT22;7126;48.458;7.930;2023-02-01T05:12:17;5.90;99.90
14099;DHT22;7126;48.458;7.930;2023-02-01T05:15:01;5.90;99.90
14099;DHT22;7126;48.458;7.930;2023-02-01T05:17:26;5.90;99.90
14099;DHT22;7126;48.458;7.930;2023-02-01T05:19:52;5.90;99.90
14099;DHT22;7126;48.458;7.930;2023-02-01T05:22:17;5.90;99.90
14099;DHT22;7126;48.458;7.930;2023-02-01T05:24:43;5.90;99.90
14099;DHT22;7126;48.458;7.930;2023-02-01T05:27:09;5.90;99.90
14099;DHT22;7126;48.458;7.930;2023-02-01T05:29:34;5.90;99.90
14099;DHT22;7126;48.458;7.930;2023-02-01T05:32:00;5.90;99.90
14099;DHT22;7126;48.458;7.930;2023-02-01T05:34:26;5.90;99.90
14099;DHT22;7126;48.458;7.930;2023-02-01T05:36:51;5.90;99.90
14099;DHT22;7126;48.458;7.930;2023-02-01T05:39:17;6.00;99.90
14099;DHT22;7126;48.458;7.930;2023-02-01T05:41:42;6.00;99.90
14099;DHT22;7126;48.458;7.930;2023-02-01T05:44:08;5.90;99.90
14099;DHT22;7126;48.458;7.930;2023-02-01T05:46:35;5.90;99.90
14099;DHT22;7126;48.458;7.930;2023-02-01T05:49:01;5.90;99.90
14099;DHT22;7126;48.458;7.930;2023-02-01T05:51:26;5.90;99.90
14099;DHT22;7126;48.458;7.930;2023-02-01T05:53:52;5.90;99.90
14099;DHT22;7126;48.458;7.930;2023-02-01T05:56:17;5.80;99.90
14099;DHT22;7126;48.458;7.930;2023-02-01T05:58:43;5.80;99.90
14099;DHT22;7126;48.458;7.930;2023-02-01T06:01:08;5.90;99.90
14099;DHT22;7126;48.458;7.930;2023-02-01T06:03:34;5.80;99.90
14099;DHT22;7126;48.458;7.930;2023-02-01T06:06:00;5.80;99.90
14099;DHT22;7126;48.458;7.930;2023-02-01T06:08:26;5.80;99.90
14099;DHT22;7126;48.458;7.930;2023-02-01T06:10:59;5.80;99.90
14099;DHT22;7126;48.458;7.930;2023-02-01T06:13:25;5.80;99.90
14099;DHT22;7126;48.458;7.930;2023-02-01T06:15:50;5.70;99.90
14099;DHT22;7126;48.458;7.930;2023-02-01T06:18:16;5.80;99.90
14099;DHT22;7126;48.458;7.930;2023-02-01T06:20:42;5.80;99.90
14099;DHT22;7126;48.458;7.930;2023-02-01T06:23:08;5.80;99.90
14099;DHT22;7126;48.458;7.930;2023-02-01T06:25:33;5.80;99.90
14099;DHT22;7126;48.458;7.930;2023-02-01T06:28:01;5.80;99.90
14099;DHT22;7126;48.458;7.930;2023-02-01T06:30:27;5.70;99.90
14099;DHT22;7126;48.458;7.930;2023-02-01T06:32:53;5.70;99.90
14099;DHT22;7126;48.458;7.930;2023-02-01T06:35:21;5.70;99.90
14099;DHT22;7126;48.458;7.930;2023-02-01T06:37:47;5.80;99.90
14099;DHT22;7126;48.458;7.930;2023-02-01T06:40:12;5.80;99.90
14099;DHT22;7126;48.458;7.930;2023-02-01T06:42:38;5.70;99.90
14099;DHT22;7126;48.458;7.930;2023-02-01T06:45:04;5.80;99.90
14099;DHT22;7126;48.458;7.930;2023-02-01T06:47:32;5.80;99.90
14099;DHT22;7126;48.458;7.930;2023-02-01T06:49:57;5.80;99.90
14099;DHT22;7126;48.458;7.930;2023-02-01T06:52:23;5.80;99.90
14099;DHT22;7126;48.458;7.930;2023-02-01T06:54:48;5.90;99.90
14099;DHT22;7126;48.458;7.930;2023-02-01T06:57:14;5.90;99.90
14099;DHT22;7126;48.458;7.930;2023-02-01T06:59:39;5.80;99.90
14099;DHT22;7126;48.458;7.930;2023-02-01T07:02:05;5.80;99.90
14099;DHT22;7126;48.458;7.930;2023-02-01T07:04:31;5.70;99.90
14099;DHT22;7126;48.458;7.930;2023-02-01T07:06:56;5.60;99.90
14099;DHT22;7126;48.458;7.930;2023-02-01T07:09:22;5.60;99.90
14099;DHT22;7126;48.458;7.930;2023-02-01T07:11:47;5.60;99.90
14099;DHT22;7126;48.458;7.930;2023-02-01T07:14:13;5.60;99.90
14099;DHT22;7126;48.458;7.930;2023-02-01T07:16:39;5.60;99.90
14099;DHT22;7126;48.458;7.930;2023-02-01T07:19:04;5.60;99.90
14099;DHT22;7126;48.458;7.930;2023-02-01T07:21:30;5.50;99.90
14099;DHT22;7126;48.458;7.930;2023-02-01T07:23:55;5.50;99.90
14099;DHT22;7126;48.458;7.930;2023-02-01T07:26:21;5.50;99.90
14099;DHT22;7126;48.458;7.930;2023-02-01T07:28:47;5.50;99.90
14099;DHT22;7126;48.458;7.930;2023-02-01T07:31:15;5.50;99.90
14099;DHT22;7126;48.458;7.930;2023-02-01T07:33:41;5.50;99.90
14099;DHT22;7126;48.458;7.930;2023-02-01T07:36:11;5.50;99.90
14099;DHT22;7126;48.458;7.930;2023-02-01T07:38:37;5.50;99.90
14099;DHT22;7126;48.458;7.930;2023-02-01T07:41:04;5.60;99.90
14099;DHT22;7126;48.458;7.930;2023-02-01T07:43:31;5.50;99.90
14099;DHT22;7126;48.458;7.930;2023-02-01T07:45:58;5.60;99.90
14099;DHT22;7126;48.458;7.930;2023-02-01T07:48:25;5.60;99.90
14099;DHT22;7126;48.458;7.930;2023-02-01T07:51:10;5.60;99.90
14099;DHT22;7126;48.458;7.930;2023-02-01T07:53:36;5.60;99.90
14099;DHT22;7126;48.458;7.930;2023-02-01T07:56:03;5.60;99.90
14099;DHT22;7126;48.458;7.930;2023-02-01T07:58:29;5.60;99.90
14099;DHT22;7126;48.458;7.930;2023-02-01T08:00:55;5.60;99.90
14099;DHT22;7126;48.458;7.930;2023-02-01T08:03:39;5.60;99.90
14099;DHT22;7126;48.458;7.930;2023-02-01T08:06:05;5.60;99.90
14099;DHT22;7126;48.458;7.930;2023-02-01T08:08:32;5.60;99.90
14099;DHT22;7126;48.458;7.930;2023-02-01T08:11:02;5.60;99.90
14099;DHT22;7126;48.458;7.930;2023-02-01T08:13:28;5.60;99.90
14099;DHT22;7126;48.458;7.930;2023-02-01T08:16:01;5.60;99.90
14099;DHT22;7126;48.458;7.930;2023-02-01T08:18:31;5.60;99.90
14099;DHT22;7126;48.458;7.930;2023-02-01T08:20:57;5.60;99.90
14099;DHT22;7126;48.458;7.930;2023-02-01T08:23:23;5.70;99.90
14099;DHT22;7126;48.458;7.930;2023-02-01T08:25:48;5.60;99.90
14099;DHT22;7126;48.458;7.930;2023-02-01T08:28:14;5.70;99.90
14099;DHT22;7126;48.458;7.930;2023-02-01T08:30:40;5.70;99.90
14099;DHT22;7126;48.458;7.930;2023-02-01T08:33:07;5.60;99.90
14099;DHT22;7126;48.458;7.930;2023-02-01T08:35:35;5.70;99.90
14099;DHT22;7126;48.458;7.930;2023-02-01T08:38:01;5.70;99.90
14099;DHT22;7126;48.458;7.930;2023-02-01T08:40:26;5.70;99.90
14099;DHT22;7126;48.458;7.930;2023-02-01T08:42:52;5.80;99.90
14099;DHT22;7126;48.458;7.930;2023-02-01T08:45:23;5.80;99.90
14099;DHT22;7126;48.458;7.930;2023-02-01T08:47:50;5.90;99.90
14099;DHT22;7126;48.458;7.930;2023-02-01T08:50:17;5.90;99.90
14099;DHT22;7126;48.458;7.930;2023-02-01T08:52:43;5.90;99.90
14099;DHT22;7126;48.458;7.930;2023-02-01T08:55:09;5.90;99.90
14099;DHT22;7126;48.458;7.930;2023-02-01T08:57:35;5.90;99.90
14099;DHT22;7126;48.458;7.930;2023-02-01T09:00:01;6.00;99.90
14099;DHT22;7126;48.458;7.930;2023-02-01T09:02:27;6.00;99.90
14099;DHT22;7126;48.458;7.930;2023-02-01T09:04:52;6.00;99.90
14099;DHT22;7126;48.458;7.930;2023-02-01T09:07:18;6.00;99.90
14099;DHT22;7126;48.458;7.930;2023-02-01T09:09:45;6.10;99.90
14099;DHT22;7126;48.458;7.930;2023-02-01T09:12:10;6.10;99.90
14099;DHT22;7126;48.458;7.930;2023-02-01T09:14:36;6.10;99.90
14099;DHT22;7126;48.458;7.930;2023-02-01T09:17:02;6.10;99.90
14099;DHT22;7126;48.458;7.930;2023-02-01T09:19:27;6.10;99.90
14099;DHT22;7126;48.458;7.930;2023-02-01T09:21:53;6.20;99.90
14099;DHT22;7126;48.458;7.930;2023-02-01T09:24:19;6.10;99.90
14099;DHT22;7126;48.458;7.930;2023-02-01T09:26:44;6.10;99.90
14099;DHT22;7126;48.458;7.930;2023-02-01T09:29:10;6.00;99.90
14099;DHT22;7126;48.458;7.930;2023-02-01T09:31:36;6.10;99.90
14099;DHT22;7126;48.458;7.930;2023-02-01T09:34:02;6.10;99.90
14099;DHT22;7126;48.458;7.930;2023-02-01T09:36:28;6.10;99.90
14099;DHT22;7126;48.458;7.930;2023-02-01T09:38:54;6.10;99.90
14099;DHT22;7126;48.458;7.930;2023-02-01T09:46:48;6.20;99.90
14099;DHT22;7126;48.458;7.930;2023-02-01T09:49:18;6.20;99.90
14099;DHT22;7126;48.458;7.930;2023-02-01T09:51:48;6.30;99.90
14099;DHT22;7126;48.458;7.930;2023-02-01T09:54:20;6.30;99.90
14099;DHT22;7126;48.458;7.930;2023-02-01T09:57:00;6.40;99.90
14099;DHT22;7126;48.458;7.930;2023-02-01T09:59:37;6.40;99.90
14099;DHT22;7126;48.458;7.930;2023-02-01T10:02:12;6.40;99.90
14099;DHT22;7126;48.458;7.930;2023-02-01T10:04:38;6.40;99.90
14099;DHT22;7126;48.458;7.930;2023-02-01T10:09:52;6.40;99.90
14099;DHT22;7126;48.458;7.930;2023-02-01T10:15:24;6.40;99.90
14099;DHT22;7126;48.458;7.930;2023-02-01T10:23:37;6.50;99.90
14099;DHT22;7126;48.458;7.930;2023-02-01T10:26:18;6.50;99.90
14099;DHT22;7126;48.458;7.930;2023-02-01T10:28:48;6.50;99.90
14099;DHT22;7126;48.458;7.930;2023-02-01T10:31:15;6.60;99.90
14099;DHT22;7126;48.458;7.930;2023-02-01T10:33:52;6.60;99.90
14099;DHT22;7126;48.458;7.930;2023-02-01T10:36:29;6.70;99.90
14099;DHT22;7126;48.458;7.930;2023-02-01T10:38:58;6.80;99.90
14099;DHT22;7126;48.458;7.930;2023-02-01T10:41:31;6.80;99.90
14099;DHT22;7126;48.458;7.930;2023-02-01T10:43:58;6.80;99.90
14099;DHT22;7126;48.458;7.930;2023-02-01T10:46:25;6.70;99.90
14099;DHT22;7126;48.458;7.930;2023-02-01T10:48:55;6.80;99.90
14099;DHT22;7126;48.458;7.930;2023-02-01T10:53:58;6.80;99.90
14099;DHT22;7126;48.458;7.930;2023-02-01T10:56:28;6.70;99.90
14099;DHT22;7126;48.458;7.930;2023-02-01T10:59:02;6.70;99.90
14099;DHT22;7126;48.458;7.930;2023-02-01T11:01:34;6.70;99.90
14099;DHT22;7126;48.458;7.930;2023-02-01T11:04:05;6.70;99.90
14099;DHT22;7126;48.458;7.930;2023-02-01T11:06:39;6.80;99.90
14099;DHT22;7126;48.458;7.930;2023-02-01T11:11:31;6.80;99.90
14099;DHT22;7126;48.458;7.930;2023-02-01T11:14:00;6.70;99.90
14099;DHT22;7126;48.458;7.930;2023-02-01T11:16:49;6.70;99.90
14099;DHT22;7126;48.458;7.930;2023-02-01T11:19:16;6.80;99.90
14099;DHT22;7126;48.458;7.930;2023-02-01T11:21:43;6.80;99.90
14099;DHT22;7126;48.458;7.930;2023-02-01T11:24:32;6.90;99.90
14099;DHT22;7126;48.458;7.930;2023-02-01T11:27:05;6.80;99.90
14099;DHT22;7126;48.458;7.930;2023-02-01T11:29:40;6.80;99.90
14099;DHT22;7126;48.458;7.930;2023-02-01T11:32:08;6.80;99.90
14099;DHT22;7126;48.458;7.930;2023-02-01T11:34:38;6.80;99.90
14099;DHT22;7126;48.458;7.930;2023-02-01T11:37:04;6.80;99.90
14099;DHT22;7126;48.458;7.930;2023-02-01T11:39:39;6.80;99.90
14099;DHT22;7126;48.458;7.930;2023-02-01T11:42:16;6.80;99.90
14099;DHT22;7126;48.458;7.930;2023-02-01T11:44:44;6.80;99.90
14099;DHT22;7126;48.458;7.930;2023-02-01T11:49:55;6.90;99.90
14099;DHT22;7126;48.458;7.930;2023-02-01T12:14:33;7.00;99.90
14099;DHT22;7126;48.458;7.930;2023-02-01T12:17:06;7.00;99.90
14099;DHT22;7126;48.458;7.930;2023-02-01T12:25:28;7.10;99.90
14099;DHT22;7126;48.458;7.930;2023-02-01T12:28:14;7.10;99.90
14099;DHT22;7126;48.458;7.930;2023-02-01T12:31:04;7.10;99.90
14099;DHT22;7126;48.458;7.930;2023-02-01T12:36:32;7.10;99.90
14099;DHT22;7126;48.458;7.930;2023-02-01T12:41:56;7.10;99.90
14099;DHT22;7126;48.458;7.930;2023-02-01T12:44:31;7.10;99.90
14099;DHT22;7126;48.458;7.930;2023-02-01T12:47:05;7.10;99.90
14099;DHT22;7126;48.458;7.930;2023-02-01T12:53:09;7.10;99.90
14099;DHT22;7126;48.458;7.930;2023-02-01T12:55:42;7.10;99.90
14099;DHT22;7126;48.458;7.930;2023-02-01T12:58:21;7.10;99.90
14099;DHT22;7126;48.458;7.930;2023-02-01T13:06:25;7.10;99.90
14099;DHT22;7126;48.458;7.930;2023-02-01T13:09:15;7.20;99.90
14099;DHT22;7126;48.458;7.930;2023-02-01T13:11:45;7.20;99.90
14099;DHT22;7126;48.458;7.930;2023-02-01T13:14:33;7.20;99.90
14099;DHT22;7126;48.458;7.930;2023-02-01T13:17:31;7.20;99.90
14099;DHT22;7126;48.458;7.930;2023-02-01T13:20:21;7.20;99.90
14099;DHT22;7126;48.458;7.930;2023-02-01T13:22:53;7.30;99.90
14099;DHT22;7126;48.458;7.930;2023-02-01T13:25:47;7.30;99.90
14099;DHT22;7126;48.458;7.930;2023-02-01T13:28:25;7.30;99.90
14099;DHT22;7126;48.458;7.930;2023-02-01T13:36:39;7.40;99.90
14099;DHT22;7126;48.458;7.930;2023-02-01T13:39:23;7.40;99.90
14099;DHT22;7126;48.458;7.930;2023-02-01T13:41:56;7.40;99.90
14099;DHT22;7126;48.458;7.930;2023-02-01T13:44:39;7.40;99.90
14099;DHT22;7126;48.458;7.930;2023-02-01T13:47:32;7.50;99.90
14099;DHT22;7126;48.458;7.930;2023-02-01T13:50:03;7.50;99.90
14099;DHT22;7126;48.458;7.930;2023-02-01T13:52:40;7.50;99.90
14099;DHT22;7126;48.458;7.930;2023-02-01T13:57:41;7.50;99.90
14099;DHT22;7126;48.458;7.930;2023-02-01T14:10:57;7.30;99.90
14099;DHT22;7126;48.458;7.930;2023-02-01T14:21:33;7.30;99.90
14099;DHT22;7126;48.458;7.930;2023-02-01T14:26:47;7.40;99.90
14099;DHT22;7126;48.458;7.930;2023-02-01T14:34:36;7.40;99.90
14099;DHT22;7126;48.458;7.930;2023-02-01T14:37:22;7.40;99.90
14099;DHT22;7126;48.458;7.930;2023-02-01T14:58:35;7.50;99.90
14099;DHT22;7126;48.458;7.930;2023-02-01T15:04:12;7.50;99.90
14099;DHT22;7126;48.458;7.930;2023-02-01T15:06:47;7.50;99.90
14099;DHT22;7126;48.458;7.930;2023-02-01T15:09:32;7.40;99.90
14099;DHT22;7126;48.458;7.930;2023-02-01T15:14:41;7.40;99.90
14099;DHT22;7126;48.458;7.930;2023-02-01T15:17:37;7.40;99.90
14099;DHT22;7126;48.458;7.930;2023-02-01T15:20:27;7.30;99.90
14099;DHT22;7126;48.458;7.930;2023-02-01T15:22:56;7.30;99.90
14099;DHT22;7126;48.458;7.930;2023-02-01T15:25:30;7.30;99.90
14099;DHT22;7126;48.458;7.930;2023-02-01T15:27:56;7.30;99.90
14099;DHT22;7126;48.458;7.930;2023-02-01T15:30:28;7.30;99.90
14099;DHT22;7126;48.458;7.930;2023-02-01T15:43:32;7.20;99.90
14099;DHT22;7126;48.458;7.930;2023-02-01T15:46:00;7.20;99.90
14099;DHT22;7126;48.458;7.930;2023-02-01T15:48:34;7.30;99.90
14099;DHT22;7126;48.458;7.930;2023-02-01T15:51:00;7.30;99.90
14099;DHT22;7126;48.458;7.930;2023-02-01T15:53:27;7.20;99.90
14099;DHT22;7126;48.458;7.930;2023-02-01T15:55:59;7.20;99.90
14099;DHT22;7126;48.458;7.930;2023-02-01T15:58:26;7.20;99.90
14099;DHT22;7126;48.458;7.930;2023-02-01T16:00:58;7.20;99.90
14099;DHT22;7126;48.458;7.930;2023-02-01T16:03:43;7.20;99.90
14099;DHT22;7126;48.458;7.930;2023-02-01T16:06:11;7.20;99.90
14099;DHT22;7126;48.458;7.930;2023-02-01T16:08:54;7.30;99.90
14099;DHT22;7126;48.458;7.930;2023-02-01T16:11:26;7.30;99.90
14099;DHT22;7126;48.458;7.930;2023-02-01T16:13:53;7.30;99.90
14099;DHT22;7126;48.458;7.930;2023-02-01T16:16:19;7.30;99.90
14099;DHT22;7126;48.458;7.930;2023-02-01T16:18:44;7.30;99.90
14099;DHT22;7126;48.458;7.930;2023-02-01T16:21:10;7.30;99.90
14099;DHT22;7126;48.458;7.930;2023-02-01T16:23:36;7.30;99.90
14099;DHT22;7126;48.458;7.930;2023-02-01T16:26:03;7.30;99.90
14099;DHT22;7126;48.458;7.930;2023-02-01T16:28:28;7.30;99.90
14099;DHT22;7126;48.458;7.930;2023-02-01T16:30:54;7.40;99.90
14099;DHT22;7126;48.458;7.930;2023-02-01T16:33:21;7.30;99.90
14099;DHT22;7126;48.458;7.930;2023-02-01T16:35:47;7.30;99.90
14099;DHT22;7126;48.458;7.930;2023-02-01T16:38:15;7.30;99.90
14099;DHT22;7126;48.458;7.930;2023-02-01T16:40:44;7.30;99.90
14099;DHT22;7126;48.458;7.930;2023-02-01T16:43:21;7.40;99.90
14099;DHT22;7126;48.458;7.930;2023-02-01T16:45:49;7.30;99.90
14099;DHT22;7126;48.458;7.930;2023-02-01T16:48:29;7.40;99.90
14099;DHT22;7126;48.458;7.930;2023-02-01T16:51:09;7.40;99.90
14099;DHT22;7126;48.458;7.930;2023-02-01T16:53:36;7.40;99.90
14099;DHT22;7126;48.458;7.930;2023-02-01T16:56:04;7.40;99.90
14099;DHT22;7126;48.458;7.930;2023-02-01T16:58:30;7.40;99.90
14099;DHT22;7126;48.458;7.930;2023-02-01T17:00:55;7.40;99.90
14099;DHT22;7126;48.458;7.930;2023-02-01T17:03:21;7.40;99.90
14099;DHT22;7126;48.458;7.930;2023-02-01T17:05:54;7.40;99.90
14099;DHT22;7126;48.458;7.930;2023-02-01T17:08:33;7.40;99.90
14099;DHT22;7126;48.458;7.930;2023-02-01T17:10:59;7.40;99.90
14099;DHT22;7126;48.458;7.930;2023-02-01T17:13:26;7.40;99.90
14099;DHT22;7126;48.458;7.930;2023-02-01T17:18:44;7.40;99.90
14099;DHT22;7126;48.458;7.930;2023-02-01T17:21:11;7.40;99.90
14099;DHT22;7126;48.458;7.930;2023-02-01T17:23:37;7.40;99.90
14099;DHT22;7126;48.458;7.930;2023-02-01T17:26:02;7.40;99.90
14099;DHT22;7126;48.458;7.930;2023-02-01T17:28:28;7.40;99.90
14099;DHT22;7126;48.458;7.930;2023-02-01T17:30:54;7.40;99.90
14099;DHT22;7126;48.458;7.930;2023-02-01T17:33:24;7.40;99.90
14099;DHT22;7126;48.458;7.930;2023-02-01T17:35:51;7.40;99.90
14099;DHT22;7126;48.458;7.930;2023-02-01T17:38:17;7.30;99.90
14099;DHT22;7126;48.458;7.930;2023-02-01T17:40:43;7.30;99.90
14099;DHT22;7126;48.458;7.930;2023-02-01T17:43:13;7.30;99.90
14099;DHT22;7126;48.458;7.930;2023-02-01T17:45:44;7.30;99.90
14099;DHT22;7126;48.458;7.930;2023-02-01T17:48:14;7.30;99.90
14099;DHT22;7126;48.458;7.930;2023-02-01T17:50:40;7.30;99.90
14099;DHT22;7126;48.458;7.930;2023-02-01T17:53:06;7.30;99.90
14099;DHT22;7126;48.458;7.930;2023-02-01T17:55:35;7.30;99.90
14099;DHT22;7126;48.458;7.930;2023-02-01T17:58:01;7.30;99.90
14099;DHT22;7126;48.458;7.930;2023-02-01T18:00:26;7.30;99.90
14099;DHT22;7126;48.458;7.930;2023-02-01T18:02:52;7.30;99.90
14099;DHT22;7126;48.458;7.930;2023-02-01T18:05:44;7.30;99.90
14099;DHT22;7126;48.458;7.930;2023-02-01T18:08:21;7.30;99.90
14099;DHT22;7126;48.458;7.930;2023-02-01T18:10:49;7.20;99.90
14099;DHT22;7126;48.458;7.930;2023-02-01T18:13:15;7.20;99.90
14099;DHT22;7126;48.458;7.930;2023-02-01T18:15:41;7.20;99.90
14099;DHT22;7126;48.458;7.930;2023-02-01T18:18:06;7.10;99.90
14099;DHT22;7126;48.458;7.930;2023-02-01T18:20:32;7.20;99.90
14099;DHT22;7126;48.458;7.930;2023-02-01T18:23:00;7.20;99.90
14099;DHT22;7126;48.458;7.930;2023-02-01T18:25:27;7.20;99.90
14099;DHT22;7126;48.458;7.930;2023-02-01T18:27:55;7.20;99.90
14099;DHT22;7126;48.458;7.930;2023-02-01T18:30:23;7.20;99.90
14099;DHT22;7126;48.458;7.930;2023-02-01T18:32:49;7.20;99.90
14099;DHT22;7126;48.458;7.930;2023-02-01T18:35:23;7.20;99.90
14099;DHT22;7126;48.458;7.930;2023-02-01T18:37:50;7.20;99.90
14099;DHT22;7126;48.458;7.930;2023-02-01T18:40:23;7.20;99.90
14099;DHT22;7126;48.458;7.930;2023-02-01T18:42:49;7.20;99.90
14099;DHT22;7126;48.458;7.930;2023-02-01T18:47:46;7.20;99.90
14099;DHT22;7126;48.458;7.930;2023-02-01T18:50:11;7.20;99.90
14099;DHT22;7126;48.458;7.930;2023-02-01T18:52:37;7.20;99.90
14099;DHT22;7126;48.458;7.930;2023-02-01T18:55:03;7.20;99.90
14099;DHT22;7126;48.458;7.930;2023-02-01T18:57:29;7.20;99.90
14099;DHT22;7126;48.458;7.930;2023-02-01T18:59:54;7.20;99.90
14099;DHT22;7126;48.458;7.930;2023-02-01T19:02:20;7.20;99.90